Time;durP1;ratioP1;P1;durP2;ratioP2;P2;SDS_P1;SDS_P2;PMS_P1;PMS_P2;Temp;Humidity;BMP_temperature;BMP_pressure;BME280_temperature;BME280_humidity;BME280_pressure;Samples;Min_cycle;Max_cycle;Signal;HPM_P1;HPM_P2
2023/05/12 00:02:50;;;;;;;3.72;3.00;;;;;;;;;;6244023;28;20291;-75
2023/05/12 00:05:55;;;;;;;10.70;3.85;;;;;;;;;;6259311;28;20295;-74
2023/05/12 00:09:00;;;;;;;8.27;3.45;;;;;;;;;;6260961;28;20319;-76
2023/05/12 00:12:07;;;;;;;4.97;2.97;;;;;;;;;;6261663;28;20608;-75
2023/05/12 00:15:14;;;;;;;4.60;3.65;;;;;;;;;;6261149;28;20291;-76
2023/05/12 00:18:19;;;;;;;8.50;3.47;;;;;;;;;;6260794;28;20292;-75
2023/05/12 00:21:24;;;;;;;43.80;5.43;;;;;;;;;;6260941;28;20307;-75
2023/05/12 00:24:29;;;;;;;33.05;6.00;;;;;;;;;;6260738;28;20300;-75
2023/05/12 00:27:34;;;;;;;20.77;3.88;;;;;;;;;;6261195;28;20295;-76
2023/05/12 00:30:41;;;;;;;14.25;4.60;;;;;;;;;;6259249;28;20287;-75
2023/05/12 00:33:46;;;;;;;37.30;5.25;;;;;;;;;;6260575;28;20291;-75
2023/05/12 00:36:52;;;;;;;12.23;4.65;;;;;;;;;;6259729;28;20292;-76
2023/05/12 00:39:57;;;;;;;18.58;4.80;;;;;;;;;;6259338;28;20600;-75
2023/05/12 00:43:03;;;;;;;17.58;5.30;;;;;;;;;;6259208;28;20295;-75
2023/05/12 00:46:10;;;;;;;11.85;3.90;;;;;;;;;;6260379;28;20312;-74
2023/05/12 00:49:15;;;;;;;17.92;4.43;;;;;;;;;;6259276;28;20299;-75
2023/05/12 00:52:20;;;;;;;15.20;4.13;;;;;;;;;;6260835;28;20283;-76
2023/05/12 00:55:26;;;;;;;31.25;5.00;;;;;;;;;;6265537;28;20304;-75
2023/05/12 00:58:32;;;;;;;32.88;4.95;;;;;;;;;;6274263;28;20568;-75
2023/05/12 01:01:38;;;;;;;22.70;4.38;;;;;;;;;;6259481;28;20560;-75
2023/05/12 01:04:44;;;;;;;26.40;5.10;;;;;;;;;;6262815;22;20299;-77
2023/05/12 01:07:50;;;;;;;45.40;6.80;;;;;;;;;;6236219;28;20462;-76
2023/05/12 01:10:55;;;;;;;22.33;4.07;;;;;;;;;;6255389;28;20482;-78
2023/05/12 01:14:00;;;;;;;20.33;4.13;;;;;;;;;;6233249;28;20292;-78
2023/05/12 01:17:10;;;;;;;12.88;4.13;;;;;;;;;;6234876;28;20284;-77
2023/05/12 01:20:18;;;;;;;10.50;4.07;;;;;;;;;;6249179;28;20292;-77
2023/05/12 01:23:29;;;;;;;10.23;4.15;;;;;;;;;;6241675;28;20303;-78
2023/05/12 01:26:36;;;;;;;4.18;3.75;;;;;;;;;;6273338;28;20285;-78
2023/05/12 01:29:41;;;;;;;4.10;3.80;;;;;;;;;;6242925;28;20295;-77
2023/05/12 01:32:47;;;;;;;23.38;4.35;;;;;;;;;;6257789;28;20344;-77
2023/05/12 01:35:53;;;;;;;5.65;4.00;;;;;;;;;;6256999;28;20315;-77
2023/05/12 01:38:58;;;;;;;5.53;3.80;;;;;;;;;;6250420;28;20297;-77
2023/05/12 01:42:05;;;;;;;10.15;4.00;;;;;;;;;;6209113;28;20304;-77
2023/05/12 01:45:11;;;;;;;11.82;3.63;;;;;;;;;;6209567;28;20308;-78
2023/05/12 01:48:17;;;;;;;5.50;3.70;;;;;;;;;;6209788;28;20578;-78
2023/05/12 01:51:23;;;;;;;11.45;3.92;;;;;;;;;;6208728;28;20289;-77
2023/05/12 01:54:28;;;;;;;4.15;3.17;;;;;;;;;;6247363;28;20466;-78
2023/05/12 01:57:36;;;;;;;8.73;3.50;;;;;;;;;;6209853;28;20297;-77
2023/05/12 02:00:41;;;;;;;4.68;3.50;;;;;;;;;;6260573;28;20312;-77
2023/05/12 02:03:51;;;;;;;8.07;3.38;;;;;;;;;;6232027;28;20309;-78
2023/05/12 02:06:59;;;;;;;6.70;3.30;;;;;;;;;;6233076;28;20288;-77
2023/05/12 02:10:05;;;;;;;3.72;3.50;;;;;;;;;;6234666;28;20308;-78
2023/05/12 02:13:11;;;;;;;5.05;3.03;;;;;;;;;;6250249;28;20295;-77
2023/05/12 02:16:17;;;;;;;4.03;3.60;;;;;;;;;;6257126;28;20291;-78
2023/05/12 02:19:23;;;;;;;3.25;3.08;;;;;;;;;;6273188;28;20297;-76
2023/05/12 02:22:28;;;;;;;3.50;3.40;;;;;;;;;;6256711;28;20272;-76
2023/05/12 02:25:35;;;;;;;2.95;2.85;;;;;;;;;;6258066;28;20298;-77
2023/05/12 02:28:41;;;;;;;3.47;3.22;;;;;;;;;;6258415;28;20308;-76
2023/05/12 02:31:47;;;;;;;4.05;3.33;;;;;;;;;;6261506;28;20558;-77
2023/05/12 02:34:54;;;;;;;3.38;3.17;;;;;;;;;;6277409;28;20288;-76
2023/05/12 02:38:00;;;;;;;4.07;3.50;;;;;;;;;;6270632;28;20287;-77
2023/05/12 02:41:05;;;;;;;3.70;3.38;;;;;;;;;;6261163;28;20310;-77
2023/05/12 02:44:12;;;;;;;3.63;3.33;;;;;;;;;;6261105;28;20441;-78
2023/05/12 02:47:18;;;;;;;7.90;3.40;;;;;;;;;;6262647;28;20627;-77
2023/05/12 02:50:24;;;;;;;8.27;3.65;;;;;;;;;;6262042;28;20291;-77
2023/05/12 02:53:29;;;;;;;3.95;3.40;;;;;;;;;;6276930;28;20291;-78
2023/05/12 02:56:35;;;;;;;4.25;3.70;;;;;;;;;;6262405;28;20300;-78
2023/05/12 02:59:41;;;;;;;4.20;3.33;;;;;;;;;;6261975;28;20291;-77
2023/05/12 03:02:47;;;;;;;4.75;3.40;;;;;;;;;;6259962;28;20299;-78
2023/05/12 03:05:52;;;;;;;4.82;3.63;;;;;;;;;;6260775;28;20288;-77
2023/05/12 03:08:58;;;;;;;4.05;3.50;;;;;;;;;;6261251;28;20444;-79
2023/05/12 03:12:04;;;;;;;8.65;4.20;;;;;;;;;;6265812;28;20293;-78
2023/05/12 03:15:14;;;;;;;7.38;3.63;;;;;;;;;;6261295;28;20305;-78
2023/05/12 03:18:19;;;;;;;5.90;3.70;;;;;;;;;;6261198;28;20295;-77
2023/05/12 03:21:24;;;;;;;6.32;3.90;;;;;;;;;;6260291;28;20283;-77
2023/05/12 03:24:29;;;;;;;9.15;3.70;;;;;;;;;;6276265;28;20307;-77
2023/05/12 03:27:34;;;;;;;7.53;3.30;;;;;;;;;;6276315;28;20576;-77
2023/05/12 03:30:42;;;;;;;10.00;3.50;;;;;;;;;;6276723;28;20291;-77
2023/05/12 03:33:47;;;;;;;5.80;3.45;;;;;;;;;;6260626;28;20296;-79
2023/05/12 03:36:52;;;;;;;9.52;3.45;;;;;;;;;;6261093;28;20297;-76
2023/05/12 03:39:57;;;;;;;3.83;3.58;;;;;;;;;;6259576;28;20292;-76
2023/05/12 03:43:03;;;;;;;6.10;3.40;;;;;;;;;;6259860;28;20296;-77
2023/05/12 03:46:10;;;;;;;3.80;3.55;;;;;;;;;;6262547;28;20291;-76
2023/05/12 03:49:17;;;;;;;8.32;3.40;;;;;;;;;;6267372;28;20368;-78
2023/05/12 03:52:22;;;;;;;5.72;3.63;;;;;;;;;;6260291;28;20409;-77
2023/05/12 03:55:27;;;;;;;14.90;3.50;;;;;;;;;;6260140;28;20291;-77
2023/05/12 03:58:32;;;;;;;8.60;3.60;;;;;;;;;;6260016;28;20299;-77
2023/05/12 04:01:39;;;;;;;7.60;3.70;;;;;;;;;;6259367;28;20268;-77
2023/05/12 04:04:45;;;;;;;62.58;5.65;;;;;;;;;;6260008;28;20303;-77
2023/05/12 04:07:51;;;;;;;11.77;3.55;;;;;;;;;;6259587;28;20295;-76
2023/05/12 04:10:57;;;;;;;14.60;3.58;;;;;;;;;;6260291;28;20287;-77
2023/05/12 04:14:02;;;;;;;14.85;4.30;;;;;;;;;;6267221;28;20565;-76
2023/05/12 04:17:09;;;;;;;9.75;4.25;;;;;;;;;;6235524;28;20308;-76
2023/05/12 04:20:14;;;;;;;15.82;4.05;;;;;;;;;;6234215;28;20293;-78
2023/05/12 04:23:19;;;;;;;12.25;3.97;;;;;;;;;;6235517;28;20312;-77
2023/05/12 04:26:25;;;;;;;8.00;3.42;;;;;;;;;;6234284;28;20288;-77
2023/05/12 04:29:31;;;;;;;14.68;4.47;;;;;;;;;;6234181;28;20292;-76
2023/05/12 04:32:44;;;;;;;11.50;3.90;;;;;;;;;;6234416;28;20292;-76
2023/05/12 04:35:50;;;;;;;7.32;3.50;;;;;;;;;;6233943;28;20296;-77
2023/05/12 04:38:55;;;;;;;7.97;4.15;;;;;;;;;;6235345;28;20321;-76
2023/05/12 04:42:01;;;;;;;7.20;3.55;;;;;;;;;;6234414;28;20307;-78
2023/05/12 04:45:10;;;;;;;3.30;2.97;;;;;;;;;;6235889;28;20326;-77
2023/05/12 04:48:17;;;;;;;12.30;4.75;;;;;;;;;;6233828;28;20297;-77
2023/05/12 04:51:23;;;;;;;14.85;3.83;;;;;;;;;;6266706;28;20320;-77
2023/05/12 04:54:28;;;;;;;5.15;3.35;;;;;;;;;;6235110;28;20343;-78
2023/05/12 04:57:33;;;;;;;11.40;3.50;;;;;;;;;;6237565;28;20292;-77
2023/05/12 05:00:38;;;;;;;8.35;3.42;;;;;;;;;;6239611;28;20292;-77
2023/05/12 05:03:45;;;;;;;11.65;3.45;;;;;;;;;;6233186;28;20316;-78
2023/05/12 05:06:51;;;;;;;6.40;3.60;;;;;;;;;;6218360;28;20296;-77
2023/05/12 05:09:56;;;;;;;11.05;3.42;;;;;;;;;;6269957;28;20224;-77
2023/05/12 05:13:03;;;;;;;10.70;3.20;;;;;;;;;;6257858;28;20399;-77
2023/05/12 05:16:08;;;;;;;5.75;3.38;;;;;;;;;;6258650;28;20376;-77
2023/05/12 05:19:16;;;;;;;6.00;3.50;;;;;;;;;;6257793;28;20316;-77
2023/05/12 05:22:34;;;;;;;9.90;3.20;;;;;;;;;;6256629;28;20538;-76
2023/05/12 05:25:39;;;;;;;5.65;2.85;;;;;;;;;;6258834;28;20299;-76
2023/05/12 05:28:44;;;;;;;7.30;3.55;;;;;;;;;;6257518;28;20296;-77
2023/05/12 05:31:49;;;;;;;11.60;3.75;;;;;;;;;;6274594;28;20289;-77
2023/05/12 05:34:56;;;;;;;12.68;3.42;;;;;;;;;;6257949;28;20295;-77
2023/05/12 05:38:02;;;;;;;10.68;3.33;;;;;;;;;;6259630;28;20288;-76
2023/05/12 05:41:08;;;;;;;9.60;3.50;;;;;;;;;;6284364;28;20293;-77
2023/05/12 05:44:13;;;;;;;20.80;4.47;;;;;;;;;;6268084;28;20316;-76
2023/05/12 05:47:19;;;;;;;16.98;3.40;;;;;;;;;;6267496;28;20331;-79
2023/05/12 05:50:26;;;;;;;7.25;3.10;;;;;;;;;;6265165;28;20303;-77
2023/05/12 05:53:31;;;;;;;7.18;3.20;;;;;;;;;;6257551;28;20547;-78
2023/05/12 05:56:37;;;;;;;8.18;3.58;;;;;;;;;;6274628;28;20292;-77
2023/05/12 05:59:42;;;;;;;11.25;4.25;;;;;;;;;;6258266;28;20304;-77
2023/05/12 06:02:48;;;;;;;10.75;3.25;;;;;;;;;;6273419;28;20299;-77
2023/05/12 06:05:57;;;;;;;14.43;3.50;;;;;;;;;;6261258;28;20292;-77
2023/05/12 06:09:04;;;;;;;9.27;3.25;;;;;;;;;;6266575;28;20308;-78
2023/05/12 06:12:12;;;;;;;5.03;2.63;;;;;;;;;;6264781;28;20599;-77
2023/05/12 06:15:18;;;;;;;13.43;3.13;;;;;;;;;;6262203;28;20291;-77
2023/05/12 06:18:23;;;;;;;7.00;3.65;;;;;;;;;;6278087;28;20315;-76
2023/05/12 06:21:32;;;;;;;14.00;3.28;;;;;;;;;;6263513;28;20291;-77
2023/05/12 06:24:37;;;;;;;9.32;2.90;;;;;;;;;;6278170;28;20313;-77
2023/05/12 06:27:42;;;;;;;4.82;2.60;;;;;;;;;;6262668;28;20463;-75
2023/05/12 06:30:49;;;;;;;11.18;3.05;;;;;;;;;;6245948;28;20284;-76
2023/05/12 06:33:54;;;;;;;11.68;2.75;;;;;;;;;;6277624;28;20316;-76
2023/05/12 06:37:01;;;;;;;10.80;3.80;;;;;;;;;;6263070;28;20287;-76
2023/05/12 06:40:09;;;;;;;10.20;3.05;;;;;;;;;;6261208;28;20383;-78
2023/05/12 06:43:14;;;;;;;4.00;2.90;;;;;;;;;;6277706;28;20563;-76
2023/05/12 06:46:21;;;;;;;8.65;2.80;;;;;;;;;;6260675;28;20295;-75
2023/05/12 06:49:27;;;;;;;10.85;3.22;;;;;;;;;;6277079;28;20304;-77
2023/05/12 06:52:34;;;;;;;5.45;3.17;;;;;;;;;;6261543;28;20291;-77
2023/05/12 06:55:39;;;;;;;10.27;2.70;;;;;;;;;;6278084;28;20273;-77
2023/05/12 06:58:46;;;;;;;9.30;2.75;;;;;;;;;;6262424;28;20295;-77
2023/05/12 07:01:51;;;;;;;3.75;3.10;;;;;;;;;;6262450;28;20304;-75
2023/05/12 07:04:57;;;;;;;4.97;2.55;;;;;;;;;;6261542;28;20292;-76
2023/05/12 07:08:03;;;;;;;3.50;2.75;;;;;;;;;;6261794;28;20579;-76
2023/05/12 07:11:11;;;;;;;3.20;2.90;;;;;;;;;;6262033;28;20467;-77
2023/05/12 07:14:16;;;;;;;5.93;2.85;;;;;;;;;;6261613;28;20367;-76
2023/05/12 07:17:21;;;;;;;8.85;2.78;;;;;;;;;;6261496;28;20418;-77
2023/05/12 07:20:26;;;;;;;7.18;3.22;;;;;;;;;;6268710;28;20288;-75
2023/05/12 07:23:33;;;;;;;14.23;3.78;;;;;;;;;;6262527;28;20299;-77
2023/05/12 07:26:38;;;;;;;6.80;3.13;;;;;;;;;;6262425;28;20287;-78
2023/05/12 07:29:43;;;;;;;4.57;3.00;;;;;;;;;;6261313;28;20288;-78
2023/05/12 07:32:49;;;;;;;7.70;3.53;;;;;;;;;;6261599;28;20580;-78
2023/05/12 07:35:55;;;;;;;5.95;2.78;;;;;;;;;;6261704;28;20287;-79
2023/05/12 07:39:01;;;;;;;10.55;3.38;;;;;;;;;;6276607;28;20296;-78
2023/05/12 07:42:07;;;;;;;18.33;3.22;;;;;;;;;;6261772;28;20296;-79
2023/05/12 07:45:13;;;;;;;2.80;2.47;;;;;;;;;;6261817;28;20299;-76
2023/05/12 07:48:18;;;;;;;4.90;3.00;;;;;;;;;;6261207;28;20295;-79
2023/05/12 07:51:23;;;;;;;5.28;2.85;;;;;;;;;;6260901;28;20315;-78
2023/05/12 07:54:32;;;;;;;5.10;2.92;;;;;;;;;;6261215;28;20528;-78
2023/05/12 07:57:40;;;;;;;11.55;3.38;;;;;;;;;;6260575;28;20295;-77
2023/05/12 08:00:45;;;;;;;5.57;2.70;;;;;;;;;;6260084;28;20319;-79
2023/05/12 08:03:50;;;;;;;11.60;3.65;;;;;;;;;;6259976;28;20307;-78
2023/05/12 08:06:56;;;;;;;11.90;3.10;;;;;;;;;;6261083;28;20300;-78
2023/05/12 08:10:02;;;;;;;16.85;3.28;;;;;;;;;;6260312;28;20537;-79
2023/05/12 08:13:08;;;;;;;7.45;2.92;;;;;;;;;;6260233;28;20315;-79
2023/05/12 08:16:13;;;;;;;5.90;2.70;;;;;;;;;;6260941;28;20339;-78
2023/05/12 08:19:18;;;;;;;13.77;3.00;;;;;;;;;;6260461;28;20395;-78
2023/05/12 08:22:23;;;;;;;8.90;2.88;;;;;;;;;;6258987;28;20303;-78
2023/05/12 08:25:30;;;;;;;7.00;2.60;;;;;;;;;;6260034;28;20276;-77
2023/05/12 08:28:35;;;;;;;5.28;2.60;;;;;;;;;;6259602;28;20291;-78
2023/05/12 08:31:41;;;;;;;3.22;2.55;;;;;;;;;;6268083;28;20260;-77
2023/05/12 08:34:46;;;;;;;3.63;2.50;;;;;;;;;;6260285;28;20583;-78
2023/05/12 08:37:51;;;;;;;6.13;2.47;;;;;;;;;;6259595;28;20296;-77
2023/05/12 08:41:07;;;;;;;4.70;2.50;;;;;;;;;;6260038;28;20296;-80
2023/05/12 08:44:13;;;;;;;10.32;2.92;;;;;;;;;;6258438;28;20291;-78
2023/05/12 08:47:23;;;;;;;5.53;2.92;;;;;;;;;;6259627;28;20291;-78
2023/05/12 08:50:29;;;;;;;3.72;2.90;;;;;;;;;;6258884;28;20288;-79
2023/05/12 08:53:36;;;;;;;4.80;2.70;;;;;;;;;;6259287;28;20291;-78
2023/05/12 08:56:43;;;;;;;5.22;2.42;;;;;;;;;;6260328;28;20291;-78
2023/05/12 08:59:54;;;;;;;7.65;2.75;;;;;;;;;;6259178;28;20319;-78
2023/05/12 09:03:00;;;;;;;3.00;2.80;;;;;;;;;;6258858;28;20291;-77
2023/05/12 09:06:06;;;;;;;6.38;2.40;;;;;;;;;;6211037;28;20550;-77
2023/05/12 09:09:14;;;;;;;7.22;2.60;;;;;;;;;;6210371;28;20341;-78
2023/05/12 09:12:21;;;;;;;12.80;2.70;;;;;;;;;;6210558;28;20461;-78
2023/05/12 09:15:30;;;;;;;3.80;2.40;;;;;;;;;;6225959;28;20305;-78
2023/05/12 09:18:47;;;;;;;8.15;3.10;;;;;;;;;;6210338;28;20317;-78
2023/05/12 09:21:53;;;;;;;7.13;2.60;;;;;;;;;;6210597;28;20293;-78
2023/05/12 09:24:58;;;;;;;7.55;2.60;;;;;;;;;;6210063;28;20305;-78
2023/05/12 09:28:06;;;;;;;9.07;3.05;;;;;;;;;;6210061;28;20293;-78
2023/05/12 09:31:16;;;;;;;4.32;2.33;;;;;;;;;;6210619;28;20305;-77
2023/05/12 09:34:29;;;;;;;8.25;3.08;;;;;;;;;;6210375;28;20562;-78
2023/05/12 09:37:35;;;;;;;7.68;3.08;;;;;;;;;;6209299;28;20272;-79
2023/05/12 09:40:41;;;;;;;5.00;2.60;;;;;;;;;;6216236;28;20545;-78
2023/05/12 09:43:48;;;;;;;2.70;2.60;;;;;;;;;;6223775;28;20577;-78
2023/05/12 09:46:53;;;;;;;2.65;2.45;;;;;;;;;;6230377;28;20300;-77
2023/05/12 09:49:59;;;;;;;6.22;2.47;;;;;;;;;;6215053;28;20446;-77
2023/05/12 09:53:07;;;;;;;5.28;2.72;;;;;;;;;;6216423;28;20328;-78
2023/05/12 09:56:13;;;;;;;9.18;3.00;;;;;;;;;;6215772;28;20302;-78
2023/05/12 09:59:25;;;;;;;4.45;2.60;;;;;;;;;;6214914;28;20288;-77
2023/05/12 10:02:31;;;;;;;6.75;2.58;;;;;;;;;;6214593;28;20313;-79
2023/05/12 10:05:36;;;;;;;3.35;3.05;;;;;;;;;;6271202;28;20288;-79
2023/05/12 10:08:45;;;;;;;4.28;2.70;;;;;;;;;;6278735;28;20288;-78
2023/05/12 10:11:51;;;;;;;14.02;3.10;;;;;;;;;;6263827;28;20292;-78
2023/05/12 10:15:00;;;;;;;6.68;2.72;;;;;;;;;;6262999;28;20295;-78
2023/05/12 10:18:06;;;;;;;5.72;3.10;;;;;;;;;;6263010;28;20296;-77
2023/05/12 10:21:11;;;;;;;3.15;2.33;;;;;;;;;;6263406;28;20296;-77
2023/05/12 10:24:18;;;;;;;7.65;2.58;;;;;;;;;;6261861;28;20295;-79
2023/05/12 10:27:24;;;;;;;3.65;2.42;;;;;;;;;;6261134;28;20494;-79
2023/05/12 10:30:31;;;;;;;5.55;2.70;;;;;;;;;;6263596;28;20303;-77
2023/05/12 10:33:37;;;;;;;7.78;2.70;;;;;;;;;;6262868;28;20303;-79
2023/05/12 10:36:48;;;;;;;3.08;2.78;;;;;;;;;;6261783;28;20296;-78
2023/05/12 10:39:53;;;;;;;6.15;2.70;;;;;;;;;;6261322;28;20584;-79
2023/05/12 10:43:00;;;;;;;4.43;2.30;;;;;;;;;;6256666;28;20345;-78
2023/05/12 10:46:17;;;;;;;2.70;2.40;;;;;;;;;;6260317;28;20292;-78
2023/05/12 10:49:33;;;;;;;5.90;3.28;;;;;;;;;;6244203;28;20296;-78
2023/05/12 10:52:38;;;;;;;4.70;2.85;;;;;;;;;;6242469;28;20285;-79
2023/05/12 10:55:48;;;;;;;10.63;3.00;;;;;;;;;;6242042;28;20293;-79
2023/05/12 10:59:08;;;;;;;5.40;2.70;;;;;;;;;;6237667;28;20293;-79
2023/05/12 11:02:16;;;;;;;2.97;2.60;;;;;;;;;;6238298;28;20471;-76
2023/05/12 11:05:23;;;;;;;2.90;2.65;;;;;;;;;;6261132;28;20316;-76
2023/05/12 11:08:29;;;;;;;3.08;2.90;;;;;;;;;;6260105;28;20287;-78
2023/05/12 11:11:36;;;;;;;7.38;2.85;;;;;;;;;;6252831;28;20364;-82
2023/05/12 11:14:43;;;;;;;10.25;2.67;;;;;;;;;;6257483;28;20598;-77
2023/05/12 11:17:50;;;;;;;5.78;3.15;;;;;;;;;;6257522;28;20296;-75
2023/05/12 11:20:55;;;;;;;6.25;2.75;;;;;;;;;;6237449;28;20301;-76
2023/05/12 11:24:01;;;;;;;4.25;2.65;;;;;;;;;;6251661;28;20584;-76
2023/05/12 11:27:07;;;;;;;3.38;2.60;;;;;;;;;;6247523;28;20293;-79
2023/05/12 11:30:12;;;;;;;10.05;3.20;;;;;;;;;;6262932;28;20295;-79
2023/05/12 11:33:22;;;;;;;10.38;3.20;;;;;;;;;;6253189;28;20330;-78
2023/05/12 11:36:27;;;;;;;2.90;2.60;;;;;;;;;;6237329;28;20309;-79
2023/05/12 11:39:32;;;;;;;2.88;2.63;;;;;;;;;;6256272;28;20488;-79
2023/05/12 11:42:40;;;;;;;4.38;2.78;;;;;;;;;;6258287;28;20288;-79
2023/05/12 11:45:46;;;;;;;5.07;2.78;;;;;;;;;;6236918;28;20295;-76
2023/05/12 11:48:56;;;;;;;4.65;2.53;;;;;;;;;;6258155;28;20411;-76
2023/05/12 11:52:02;;;;;;;3.58;2.78;;;;;;;;;;6236982;28;20288;-78
2023/05/12 11:55:09;;;;;;;7.07;2.65;;;;;;;;;;6259779;28;20487;-78
2023/05/12 11:58:20;;;;;;;12.93;2.63;;;;;;;;;;6253242;28;20315;-77
2023/05/12 12:01:26;;;;;;;3.78;2.60;;;;;;;;;;6235897;28;20470;-76
2023/05/12 12:04:37;;;;;;;8.50;2.72;;;;;;;;;;6244335;28;20308;-74
2023/05/12 12:07:45;;;;;;;9.40;2.70;;;;;;;;;;6237124;28;20330;-76
2023/05/12 12:10:50;;;;;;;5.35;2.67;;;;;;;;;;6239357;28;20287;-75
2023/05/12 12:13:56;;;;;;;4.97;2.55;;;;;;;;;;6256633;28;20292;-76
2023/05/12 12:17:01;;;;;;;3.70;2.55;;;;;;;;;;6234948;28;20288;-76
2023/05/12 12:20:09;;;;;;;4.50;2.40;;;;;;;;;;6250560;28;20291;-76
2023/05/12 12:23:14;;;;;;;6.75;2.70;;;;;;;;;;6241947;28;20303;-76
2023/05/12 12:26:21;;;;;;;2.42;2.40;;;;;;;;;;6260878;28;20288;-75
2023/05/12 12:29:27;;;;;;;2.55;2.38;;;;;;;;;;6252358;28;20281;-76
2023/05/12 12:32:32;;;;;;;5.25;2.42;;;;;;;;;;6234410;28;20288;-76
2023/05/12 12:35:39;;;;;;;2.67;2.47;;;;;;;;;;6235376;28;20292;-82
2023/05/12 12:38:44;;;;;;;6.15;2.97;;;;;;;;;;6235443;28;20316;-80
2023/05/12 12:41:49;;;;;;;2.80;2.50;;;;;;;;;;6236048;28;20300;-78
2023/05/12 12:44:55;;;;;;;2.78;2.70;;;;;;;;;;6234883;28;20304;-78
2023/05/12 12:48:00;;;;;;;2.42;2.28;;;;;;;;;;6235287;28;20292;-80
2023/05/12 12:51:06;;;;;;;2.90;2.65;;;;;;;;;;6235859;28;20300;-82
2023/05/12 12:54:11;;;;;;;3.95;2.55;;;;;;;;;;6235357;28;20318;-80
2023/05/12 12:57:18;;;;;;;3.10;2.70;;;;;;;;;;6234475;28;20304;-79
2023/05/12 13:00:23;;;;;;;3.25;2.55;;;;;;;;;;6235352;28;20304;-77
2023/05/12 13:03:29;;;;;;;7.55;2.40;;;;;;;;;;6234929;28;20303;-81
2023/05/12 13:06:35;;;;;;;2.65;2.42;;;;;;;;;;6237610;28;20304;-76
2023/05/12 13:09:41;;;;;;;6.22;2.28;;;;;;;;;;6234584;28;20309;-79
2023/05/12 13:12:45;;;;;;;7.28;2.70;;;;;;;;;;6232207;28;20572;-78
2023/05/12 13:15:51;;;;;;;7.13;2.38;;;;;;;;;;6265742;28;20296;-76
2023/05/12 13:18:56;;;;;;;3.55;2.40;;;;;;;;;;6259319;28;20300;-79
2023/05/12 13:22:03;;;;;;;3.03;2.38;;;;;;;;;;6238557;28;20288;-78
2023/05/12 13:25:10;;;;;;;2.67;2.60;;;;;;;;;;6234230;28;20252;-78
2023/05/12 13:28:16;;;;;;;9.57;2.88;;;;;;;;;;6234497;28;20292;-79
2023/05/12 13:31:21;;;;;;;3.33;2.42;;;;;;;;;;6235125;28;20301;-80
2023/05/12 13:34:27;;;;;;;3.03;2.60;;;;;;;;;;6234347;28;20636;-79
2023/05/12 13:37:34;;;;;;;3.00;2.75;;;;;;;;;;6256706;28;20287;-78
2023/05/12 13:40:40;;;;;;;5.20;2.58;;;;;;;;;;6233225;28;20268;-78
2023/05/12 13:43:45;;;;;;;6.47;3.28;;;;;;;;;;6234320;28;20560;-79
2023/05/12 13:46:51;;;;;;;4.10;2.70;;;;;;;;;;6235183;28;20292;-78
2023/05/12 13:49:56;;;;;;;4.35;3.20;;;;;;;;;;6234316;28;20280;-79
2023/05/12 13:53:02;;;;;;;4.85;2.83;;;;;;;;;;6232857;28;20292;-78
2023/05/12 13:56:08;;;;;;;9.07;2.80;;;;;;;;;;6234874;28;20425;-79
2023/05/12 13:59:15;;;;;;;12.57;3.10;;;;;;;;;;6234314;28;20300;-79
2023/05/12 14:02:20;;;;;;;14.15;2.88;;;;;;;;;;6233247;28;20288;-79
2023/05/12 14:05:26;;;;;;;7.63;2.78;;;;;;;;;;6234930;28;20344;-78
2023/05/12 14:08:32;;;;;;;6.65;2.90;;;;;;;;;;6234189;28;20549;-79
2023/05/12 14:11:38;;;;;;;3.20;2.97;;;;;;;;;;6234556;28;20578;-80
2023/05/12 14:14:48;;;;;;;7.88;3.15;;;;;;;;;;6244053;28;20295;-79
2023/05/12 14:17:58;;;;;;;9.77;2.88;;;;;;;;;;6258214;28;20303;-80
2023/05/12 14:21:04;;;;;;;12.02;3.13;;;;;;;;;;6245588;28;20308;-78
2023/05/12 14:24:11;;;;;;;3.72;3.03;;;;;;;;;;6234178;28;20300;-78
2023/05/12 14:27:16;;;;;;;9.98;3.10;;;;;;;;;;6264248;28;20264;-80
2023/05/12 14:30:21;;;;;;;13.73;2.90;;;;;;;;;;6262466;28;20311;-79
2023/05/12 14:33:26;;;;;;;6.07;2.80;;;;;;;;;;6262737;28;20303;-79
2023/05/12 14:36:32;;;;;;;5.30;3.40;;;;;;;;;;6263394;28;20296;-79
2023/05/12 14:39:38;;;;;;;4.05;2.90;;;;;;;;;;6244635;28;20304;-79
2023/05/12 14:42:44;;;;;;;6.68;2.85;;;;;;;;;;6238272;28;20315;-79
2023/05/12 14:45:53;;;;;;;12.70;2.80;;;;;;;;;;6239378;28;20288;-80
2023/05/12 14:48:58;;;;;;;6.05;2.97;;;;;;;;;;6237255;28;20482;-79
2023/05/12 14:52:03;;;;;;;5.43;2.92;;;;;;;;;;6238443;28;20588;-78
2023/05/12 14:55:15;;;;;;;6.05;2.95;;;;;;;;;;6251545;28;20300;-79
2023/05/12 14:58:22;;;;;;;10.55;2.78;;;;;;;;;;6267138;28;20300;-78
2023/05/12 15:01:28;;;;;;;2.78;2.58;;;;;;;;;;6263053;28;20280;-77
2023/05/12 15:04:33;;;;;;;4.43;2.67;;;;;;;;;;6243242;28;20300;-79
2023/05/12 15:07:38;;;;;;;7.00;2.83;;;;;;;;;;6237533;28;20292;-80
2023/05/12 15:10:45;;;;;;;8.38;2.80;;;;;;;;;;6239903;28;20260;-79
2023/05/12 15:13:50;;;;;;;5.45;3.08;;;;;;;;;;6253942;28;20295;-79
2023/05/12 15:16:55;;;;;;;6.80;3.00;;;;;;;;;;6236383;28;20549;-79
2023/05/12 15:20:00;;;;;;;39.22;4.25;;;;;;;;;;6237310;28;20296;-79
2023/05/12 15:23:06;;;;;;;4.50;4.10;;;;;;;;;;6212573;28;20297;-79
2023/05/12 15:26:13;;;;;;;4.55;3.00;;;;;;;;;;6213673;28;20292;-83
2023/05/12 15:29:25;;;;;;;4.22;2.72;;;;;;;;;;6212939;28;20342;-83
2023/05/12 15:32:30;;;;;;;7.68;3.40;;;;;;;;;;6213182;28;20590;-79
2023/05/12 15:35:35;;;;;;;3.38;3.05;;;;;;;;;;6221825;28;20293;-78
2023/05/12 15:38:41;;;;;;;8.20;3.85;;;;;;;;;;6219320;28;20293;-80
2023/05/12 15:41:49;;;;;;;5.57;3.30;;;;;;;;;;6212889;28;20297;-78
2023/05/12 15:44:56;;;;;;;8.00;3.25;;;;;;;;;;6212452;28;20297;-79
2023/05/12 15:48:01;;;;;;;3.63;3.30;;;;;;;;;;6212617;28;20332;-78
2023/05/12 15:51:07;;;;;;;5.47;2.97;;;;;;;;;;6213283;28;20293;-80
2023/05/12 15:54:13;;;;;;;3.45;3.22;;;;;;;;;;6212061;28;20313;-79
2023/05/12 15:57:20;;;;;;;4.03;3.58;;;;;;;;;;6212554;28;20305;-81
2023/05/12 16:00:25;;;;;;;7.82;3.40;;;;;;;;;;6211760;28;20302;-79
2023/05/12 16:03:30;;;;;;;14.43;3.35;;;;;;;;;;6210774;28;20612;-78
2023/05/12 16:06:36;;;;;;;3.72;3.40;;;;;;;;;;6212084;28;20293;-81
2023/05/12 16:09:41;;;;;;;7.80;3.50;;;;;;;;;;6213376;28;20308;-79
2023/05/12 16:12:50;;;;;;;6.82;3.28;;;;;;;;;;6252894;28;20313;-77
2023/05/12 16:15:55;;;;;;;14.88;3.20;;;;;;;;;;6238367;28;20291;-80
2023/05/12 16:19:00;;;;;;;7.18;3.45;;;;;;;;;;6237877;28;20300;-78
2023/05/12 16:22:06;;;;;;;4.18;3.20;;;;;;;;;;6237746;28;20296;-79
2023/05/12 16:25:11;;;;;;;12.55;3.05;;;;;;;;;;6248948;28;20292;-77
2023/05/12 16:28:18;;;;;;;5.35;2.75;;;;;;;;;;6249109;28;20292;-77
2023/05/12 16:31:23;;;;;;;5.97;3.22;;;;;;;;;;6271832;28;20252;-77
2023/05/12 16:34:28;;;;;;;7.90;3.38;;;;;;;;;;6264612;28;20623;-77
2023/05/12 16:37:34;;;;;;;5.15;2.85;;;;;;;;;;6238852;28;20301;-77
2023/05/12 16:40:39;;;;;;;3.63;3.20;;;;;;;;;;6238074;28;20280;-77
2023/05/12 16:43:46;;;;;;;5.57;3.22;;;;;;;;;;6238448;28;20300;-78
2023/05/12 16:46:52;;;;;;;4.22;3.13;;;;;;;;;;6241299;28;20296;-77
2023/05/12 16:49:57;;;;;;;7.82;3.50;;;;;;;;;;6235838;28;20295;-79
2023/05/12 16:53:03;;;;;;;6.72;3.28;;;;;;;;;;6235971;28;20288;-80
2023/05/12 16:56:11;;;;;;;6.90;3.10;;;;;;;;;;6237367;28;20296;-77
2023/05/12 16:59:19;;;;;;;6.07;3.10;;;;;;;;;;6236955;28;20296;-78
2023/05/12 17:02:24;;;;;;;4.20;2.95;;;;;;;;;;6236337;28;20288;-77
2023/05/12 17:05:32;;;;;;;3.20;3.00;;;;;;;;;;6236942;28;20292;-76
2023/05/12 17:08:37;;;;;;;4.63;2.90;;;;;;;;;;6236294;28;20450;-78
2023/05/12 17:11:42;;;;;;;3.95;3.60;;;;;;;;;;6235699;28;20479;-76
2023/05/12 17:14:49;;;;;;;4.03;3.10;;;;;;;;;;6246022;28;20288;-73
2023/05/12 17:18:12;;;;;;;3.55;3.35;;;;;;;;;;6259712;28;20304;-74
2023/05/12 17:21:17;;;;;;;9.80;3.80;;;;;;;;;;6245616;28;20295;-77
2023/05/12 17:24:23;;;;;;;10.18;4.10;;;;;;;;;;6236539;28;20296;-78
2023/05/12 17:27:28;;;;;;;8.77;4.13;;;;;;;;;;6236516;28;20576;-80
2023/05/12 17:30:34;;;;;;;3.42;3.33;;;;;;;;;;6237353;28;20301;-81
2023/05/12 17:33:42;;;;;;;4.93;4.03;;;;;;;;;;6237052;28;20383;-79
2023/05/12 17:36:47;;;;;;;8.20;4.30;;;;;;;;;;6236401;28;20292;-79
2023/05/12 17:39:53;;;;;;;12.20;3.53;;;;;;;;;;6234561;28;20304;-79
2023/05/12 17:42:59;;;;;;;8.52;3.15;;;;;;;;;;6234974;28;20300;-79
2023/05/12 17:46:06;;;;;;;5.05;2.83;;;;;;;;;;6234871;28;20448;-76
2023/05/12 17:49:11;;;;;;;8.27;3.17;;;;;;;;;;6256266;28;20308;-78
2023/05/12 17:52:17;;;;;;;13.25;3.28;;;;;;;;;;6256429;28;20296;-76
2023/05/12 17:55:22;;;;;;;7.63;3.47;;;;;;;;;;6234607;28;20288;-77
2023/05/12 17:58:27;;;;;;;4.20;2.65;;;;;;;;;;6241952;28;20316;-78
2023/05/12 18:01:34;;;;;;;10.20;3.30;;;;;;;;;;6263274;28;20344;-78
2023/05/12 18:04:40;;;;;;;5.60;2.97;;;;;;;;;;6262200;28;20307;-77
2023/05/12 18:07:45;;;;;;;3.85;3.22;;;;;;;;;;6238983;28;20296;-77
2023/05/12 18:10:50;;;;;;;3.78;3.00;;;;;;;;;;6239563;28;20288;-76
2023/05/12 18:13:55;;;;;;;7.53;3.13;;;;;;;;;;6242653;28;20292;-77
2023/05/12 18:17:01;;;;;;;6.38;3.40;;;;;;;;;;6262836;28;20319;-77
2023/05/12 18:20:08;;;;;;;10.75;3.55;;;;;;;;;;6240444;28;20292;-76
2023/05/12 18:23:13;;;;;;;3.92;3.33;;;;;;;;;;6237439;28;20303;-77
2023/05/12 18:26:18;;;;;;;15.55;3.72;;;;;;;;;;6239034;28;20296;-77
2023/05/12 18:29:23;;;;;;;9.15;3.90;;;;;;;;;;6238585;28;20292;-77
2023/05/12 18:32:31;;;;;;;12.02;3.88;;;;;;;;;;6237997;28;20288;-77
2023/05/12 18:35:37;;;;;;;7.80;3.03;;;;;;;;;;6239014;28;20296;-77